createdAt,value
2023-03-16T00:02:14.108Z,100359.75
2023-03-16T00:05:35.670Z,100363.16
2023-03-16T00:08:59.206Z,100364.03
2023-03-16T00:12:22.831Z,100369.16
2023-03-16T00:15:51.609Z,100369.16
2023-03-16T00:19:13.684Z,100372.56
2023-03-16T00:22:35.452Z,100378.53
2023-03-16T00:25:58.877Z,100383.69
2023-03-16T00:29:20.430Z,100379.41
2023-03-16T00:32:43.788Z,100388.81
2023-03-16T00:36:09.420Z,100387.94
2023-03-16T00:39:35.719Z,100387.97
2023-03-16T00:42:57.598Z,100385.38
2023-03-16T00:46:20.049Z,100378.56
2023-03-16T00:49:44.455Z,100385.41
2023-03-16T00:53:07.177Z,100383.66
2023-03-16T00:56:29.216Z,100393.94
2023-03-16T00:59:51.064Z,100390.53
2023-03-16T01:03:13.642Z,100393.09
2023-03-16T01:06:39.812Z,100390.50
2023-03-16T01:10:01.580Z,100398.22
2023-03-16T01:13:24.063Z,100398.19
2023-03-16T01:16:46.170Z,100398.19
2023-03-16T01:20:12.191Z,100412.75
2023-03-16T01:23:35.763Z,100382.81
2023-03-16T01:26:57.994Z,100410.16
2023-03-16T01:30:19.813Z,100410.16
2023-03-16T01:33:42.510Z,100416.97
2023-03-16T01:37:04.920Z,100400.72
2023-03-16T01:40:28.168Z,100428.09
2023-03-16T01:43:51.991Z,100416.09
2023-03-16T01:47:14.792Z,100428.06
2023-03-16T01:50:37.053Z,100404.97
2023-03-16T01:54:03.315Z,100427.22
2023-03-16T01:57:30.641Z,100436.59
2023-03-16T02:00:55.220Z,100421.19
2023-03-16T02:04:25.955Z,100423.72
2023-03-16T02:07:49.571Z,100433.16
2023-03-16T02:11:11.641Z,100435.72
2023-03-16T02:14:35.012Z,100440.81
2023-03-16T02:17:58.226Z,100434.81
2023-03-16T02:21:27.212Z,100446.81
2023-03-16T02:24:49.402Z,100442.53
2023-03-16T02:28:20.499Z,100450.19
2023-03-16T02:31:43.795Z,100445.91
2023-03-16T02:35:07.788Z,100449.31
2023-03-16T02:38:29.332Z,100462.16
2023-03-16T02:41:51.358Z,100463.00
2023-03-16T02:45:13.967Z,100470.69
2023-03-16T02:48:45.580Z,100478.38
2023-03-16T02:52:08.513Z,100479.22
2023-03-16T02:55:30.413Z,100474.09
2023-03-16T02:58:52.593Z,100486.06
2023-03-16T03:02:14.710Z,100492.03
2023-03-16T03:05:38.472Z,100492.94
2023-03-16T03:09:00.538Z,100499.78
2023-03-16T03:12:22.288Z,100493.78
2023-03-16T03:15:44.107Z,100503.19
2023-03-16T03:19:05.829Z,100514.28
2023-03-16T03:22:29.736Z,100510.00
2023-03-16T03:25:51.552Z,100516.00
2023-03-16T03:29:13.763Z,100501.44
2023-03-16T03:32:35.862Z,100505.69
2023-03-16T03:35:59.416Z,100513.41
2023-03-16T03:39:22.518Z,100525.41
2023-03-16T03:42:44.835Z,100527.09
2023-03-16T03:46:07.604Z,100516.84
2023-03-16T03:49:29.922Z,100537.38
2023-03-16T03:52:52.091Z,100537.38
2023-03-16T03:56:15.357Z,100540.81
2023-03-16T03:59:42.680Z,100548.53
2023-03-16T04:03:05.384Z,100555.34
2023-03-16T04:06:27.411Z,100551.94
2023-03-16T04:09:49.118Z,100551.97
2023-03-16T04:13:12.284Z,100564.78
2023-03-16T04:16:34.586Z,100566.50
2023-03-16T04:19:56.610Z,100561.38
2023-03-16T04:23:18.485Z,100581.06
2023-03-16T04:26:40.329Z,100581.97
2023-03-16T04:30:04.149Z,100575.94
2023-03-16T04:33:26.574Z,100569.94
2023-03-16T04:36:48.474Z,100588.78
2023-03-16T04:40:16.841Z,100602.47
2023-03-16T04:43:39.070Z,100602.50
2023-03-16T04:47:02.568Z,100607.63
2023-03-16T04:50:25.586Z,100615.34
2023-03-16T04:53:47.616Z,100611.88
2023-03-16T04:57:09.579Z,100625.59
2023-03-16T05:00:32.225Z,100628.19
2023-03-16T05:03:57.507Z,100627.28
2023-03-16T05:07:20.550Z,100637.56
2023-03-16T05:10:42.668Z,100630.72
2023-03-16T05:14:05.072Z,100623.06
2023-03-16T05:17:26.930Z,100639.31
2023-03-16T05:20:53.719Z,100653.00
2023-03-16T05:24:15.949Z,100629.03
2023-03-16T05:27:37.835Z,100658.97
2023-03-16T05:30:59.968Z,100658.13
2023-03-16T05:34:21.865Z,100664.94
2023-03-16T05:37:45.826Z,100671.78
2023-03-16T05:41:07.653Z,100675.22
2023-03-16T05:44:29.527Z,100676.88
2023-03-16T05:47:52.008Z,100682.88
2023-03-16T05:51:14.407Z,100675.16
2023-03-16T05:54:38.025Z,100688.00
2023-03-16T05:58:00.798Z,100698.28
2023-03-16T06:01:23.897Z,100694.00
2023-03-16T06:04:46.159Z,100705.09
2023-03-16T06:08:09.279Z,100705.94
2023-03-16T06:11:33.211Z,100717.94
2023-03-16T06:14:55.284Z,100729.09
2023-03-16T06:18:18.031Z,100736.81
2023-03-16T06:21:39.651Z,100727.38
2023-03-16T06:25:01.667Z,100741.06
2023-03-16T06:28:24.693Z,100709.38
2023-03-16T06:31:46.814Z,100742.72
2023-03-16T06:35:09.687Z,100752.13
2023-03-16T06:38:31.650Z,100755.53
2023-03-16T06:41:53.598Z,100763.22
2023-03-16T06:45:18.524Z,100770.91
2023-03-16T06:48:41.980Z,100764.88
2023-03-16T06:52:04.134Z,100767.47
2023-03-16T06:55:25.779Z,100775.13
2023-03-16T06:58:47.671Z,100781.13
2023-03-16T07:02:12.149Z,100772.50
2023-03-16T07:05:33.803Z,100788.78
2023-03-16T07:08:55.637Z,100783.59
2023-03-16T07:12:17.426Z,100787.84
2023-03-16T07:15:39.347Z,100790.41
2023-03-16T07:19:02.560Z,100796.38
2023-03-16T07:22:24.416Z,100801.44
2023-03-16T07:25:46.208Z,100809.09
2023-03-16T07:29:08.201Z,100810.72
2023-03-16T07:32:30.072Z,100814.91
2023-03-16T07:35:53.354Z,100822.53
2023-03-16T07:39:17.821Z,100822.44
2023-03-16T07:42:39.781Z,100826.66
2023-03-16T07:46:02.599Z,100827.47
2023-03-16T07:49:26.873Z,100831.63
2023-03-16T07:52:50.061Z,100828.06
2023-03-16T07:56:12.573Z,100835.56
2023-03-16T07:59:34.264Z,100841.47
2023-03-16T08:02:57.641Z,100856.13
2023-03-16T08:06:19.508Z,100819.34
2023-03-16T08:09:43.084Z,100842.47
2023-03-16T08:13:05.997Z,100862.16
2023-03-16T08:16:28.798Z,100868.97
2023-03-16T08:19:51.545Z,100871.50
2023-03-16T08:23:15.646Z,100870.47
2023-03-16T08:26:39.667Z,100872.06
2023-03-16T08:30:05.157Z,100876.03
2023-03-16T08:33:28.005Z,100885.38
2023-03-16T08:36:49.842Z,100887.97
2023-03-16T08:40:15.366Z,100887.13
2023-03-16T08:43:38.698Z,100900.09
2023-03-16T08:47:01.691Z,100886.53
2023-03-16T08:50:23.457Z,100910.50
2023-03-16T08:53:45.451Z,100903.31
2023-03-16T08:57:07.428Z,100901.34
2023-03-16T09:00:31.277Z,100915.47
2023-03-16T09:03:55.244Z,100917.00
2023-03-16T09:07:17.054Z,100925.59
2023-03-16T09:10:38.787Z,100928.31
2023-03-16T09:14:00.927Z,100940.72
2023-03-16T09:17:24.295Z,100928.25
2023-03-16T09:20:47.901Z,100947.34
2023-03-16T09:24:10.283Z,100949.06
2023-03-16T09:27:32.420Z,100945.72
2023-03-16T09:30:55.083Z,100953.53
2023-03-16T09:34:18.060Z,100966.34
2023-03-16T09:37:45.625Z,100960.28
2023-03-16T09:41:32.389Z,100968.72
2023-03-16T09:45:05.626Z,100962.66
2023-03-16T09:48:29.450Z,100971.25
2023-03-16T09:52:00.613Z,100962.47
2023-03-16T09:55:29.205Z,100972.56
2023-03-16T09:58:51.109Z,100977.63
2023-03-16T10:02:42.814Z,100981.03
2023-03-16T10:06:11.317Z,100965.63
2023-03-16T10:09:39.019Z,100976.88
2023-03-16T10:13:02.750Z,100982.94
2023-03-16T10:16:32.033Z,100982.91
2023-03-16T10:19:58.170Z,100983.59
2023-03-16T10:23:23.098Z,100986.22
2023-03-16T10:26:56.511Z,100994.72
2023-03-16T10:30:25.993Z,100994.88
2023-03-16T10:33:47.999Z,101000.13
2023-03-16T10:37:14.521Z,101006.13
2023-03-16T10:40:39.832Z,101008.50
2023-03-16T10:44:12.129Z,101010.91
2023-03-16T10:47:34.968Z,101020.13
2023-03-16T10:51:00.147Z,101012.22
2023-03-16T10:54:29.511Z,101019.06
2023-03-16T10:57:53.750Z,101025.13
2023-03-16T11:01:21.831Z,101010.50
2023-03-16T11:04:43.519Z,101013.78
2023-03-16T11:08:10.949Z,101024.69
2023-03-16T11:11:34.037Z,101028.41
2023-03-16T11:14:56.371Z,101014.81
2023-03-16T11:18:32.280Z,101031.09
2023-03-16T11:21:58.355Z,101036.28
2023-03-16T11:25:28.889Z,101041.41
2023-03-16T11:29:01.810Z,101043.06
2023-03-16T11:32:27.616Z,101042.94
2023-03-16T11:35:59.834Z,101039.44
2023-03-16T11:39:41.857Z,101043.50
2023-03-16T11:43:16.030Z,101045.94
2023-03-16T11:46:43.585Z,101051.06
2023-03-16T11:50:13.555Z,101049.31
2023-03-16T11:54:02.722Z,101045.88
2023-03-16T11:57:35.116Z,101056.13
2023-03-16T12:01:07.580Z,101055.13
2023-03-16T12:04:46.621Z,101046.44
2023-03-16T12:08:18.174Z,101066.91
2023-03-16T12:11:48.235Z,101073.97
2023-03-16T12:15:21.730Z,101069.56
2023-03-16T12:18:48.895Z,101059.19
2023-03-16T12:22:20.103Z,101063.47
2023-03-16T12:25:47.674Z,101062.75
2023-03-16T12:29:21.314Z,101066.34
2023-03-16T12:32:48.011Z,101071.75
2023-03-16T12:36:34.359Z,101078.81
2023-03-16T12:40:09.226Z,101078.03
2023-03-16T12:43:58.355Z,101091.00
2023-03-16T12:47:31.478Z,101067.03
2023-03-16T12:50:55.891Z,101088.47
2023-03-16T12:54:22.443Z,101085.13
2023-03-16T12:57:46.865Z,101091.22
2023-03-16T13:01:12.598Z,101081.03
2023-03-16T13:04:41.796Z,101095.56
2023-03-16T13:08:10.053Z,101101.63
2023-03-16T13:11:43.898Z,101093.09
2023-03-16T13:15:27.615Z,101098.19
2023-03-16T13:18:49.340Z,101094.75
2023-03-16T13:22:28.596Z,101093.91
2023-03-16T13:26:03.401Z,101099.06
2023-03-16T13:29:27.566Z,101113.63
2023-03-16T13:32:49.802Z,101110.16
2023-03-16T13:36:14.718Z,101104.91
2023-03-16T13:39:38.062Z,101109.25
2023-03-16T13:43:00.906Z,101115.28
2023-03-16T13:46:29.096Z,101117.97
2023-03-16T13:49:55.746Z,101124.91
2023-03-16T13:53:30.558Z,101112.06
2023-03-16T13:56:57.481Z,101120.66
2023-03-16T14:00:24.953Z,101115.50
2023-03-16T14:03:46.826Z,101099.22
2023-03-16T14:07:17.908Z,101120.63
2023-03-16T14:10:40.523Z,101120.63
2023-03-16T14:14:16.057Z,101130.19
2023-03-16T14:17:38.158Z,101134.59
2023-03-16T14:20:59.853Z,101127.75
2023-03-16T14:24:30.870Z,101137.28
2023-03-16T14:28:00.372Z,101110.78
2023-03-16T14:31:23.557Z,101144.25
2023-03-16T14:34:50.982Z,101145.16
2023-03-16T14:38:23.628Z,101128.00
2023-03-16T14:41:45.815Z,101140.00
2023-03-16T14:45:14.670Z,101136.63
2023-03-16T14:48:38.918Z,101140.09
2023-03-16T14:52:05.153Z,101144.47
2023-03-16T14:55:27.172Z,101149.72
2023-03-16T14:58:49.129Z,101150.69
2023-03-16T15:02:18.147Z,101157.66
2023-03-16T15:05:43.551Z,101157.72
2023-03-16T15:09:05.560Z,101165.53
2023-03-16T15:12:27.566Z,101173.31
2023-03-16T15:15:49.725Z,101178.47
2023-03-16T15:19:11.975Z,101162.16
2023-03-16T15:22:38.727Z,101186.28
2023-03-16T15:26:02.963Z,101177.72
2023-03-16T15:29:25.017Z,101190.56
2023-03-16T15:32:47.539Z,101191.44
2023-03-16T15:36:16.112Z,101186.31
2023-03-16T15:39:40.296Z,101189.75
2023-03-16T15:43:02.802Z,101194.16
2023-03-16T15:46:24.784Z,101202.00
2023-03-16T15:49:48.315Z,101207.31
2023-03-16T15:53:29.246Z,101204.06
2023-03-16T15:56:54.910Z,101212.81
2023-03-16T16:00:28.613Z,101218.09
2023-03-16T16:03:51.216Z,101220.81
2023-03-16T16:07:14.664Z,101220.03
2023-03-16T16:10:39.469Z,101223.59
2023-03-16T16:14:02.780Z,101219.41
2023-03-16T16:17:42.597Z,101231.53
2023-03-16T16:21:15.045Z,101236.75
2023-03-16T16:24:37.984Z,101236.00
2023-03-16T16:28:00.517Z,101245.50
2023-03-16T16:31:25.021Z,101241.31
2023-03-16T16:35:01.749Z,101261.16
2023-03-16T16:38:26.316Z,101265.47
2023-03-16T16:41:51.106Z,101268.09
2023-03-16T16:45:19.487Z,101278.44
2023-03-16T16:48:45.367Z,101272.44
2023-03-16T16:52:12.168Z,101293.13
2023-03-16T16:55:34.756Z,101290.53
2023-03-16T16:58:58.774Z,101293.09
2023-03-16T17:02:29.666Z,101299.13
2023-03-16T17:05:54.079Z,101281.91
2023-03-16T17:09:16.401Z,101309.41
2023-03-16T17:12:39.453Z,101309.41
2023-03-16T17:16:01.401Z,101305.97
2023-03-16T17:19:25.637Z,101305.06
2023-03-16T17:22:51.684Z,101315.41
2023-03-16T17:26:17.683Z,101318.81
2023-03-16T17:29:42.037Z,101328.22
2023-03-16T17:33:08.937Z,101329.06
2023-03-16T17:36:31.539Z,101333.38
2023-03-16T17:39:57.512Z,101333.34
2023-03-16T17:43:22.821Z,101335.06
2023-03-16T17:46:47.136Z,101342.78
2023-03-16T17:50:18.058Z,101342.78
2023-03-16T17:53:40.143Z,101346.19
2023-03-16T17:57:04.009Z,101346.13
2023-03-16T18:00:32.176Z,101352.97
2023-03-16T18:03:54.836Z,101354.63
2023-03-16T18:07:17.113Z,101363.19
2023-03-16T18:10:40.100Z,101359.69
2023-03-16T18:14:04.451Z,101372.53
2023-03-16T18:17:31.646Z,101380.16
2023-03-16T18:20:56.241Z,101370.63
2023-03-16T18:24:19.764Z,101389.47
2023-03-16T18:27:42.424Z,101382.53
2023-03-16T18:31:08.283Z,101376.47
2023-03-16T18:34:34.944Z,101385.00
2023-03-16T18:37:58.882Z,101405.56
2023-03-16T18:41:23.895Z,101392.56
2023-03-16T18:44:46.771Z,101405.44
2023-03-16T18:48:23.909Z,101407.03
2023-03-16T18:51:49.605Z,101415.53
2023-03-16T18:55:17.953Z,101424.88
2023-03-16T18:58:39.635Z,101420.47
2023-03-16T19:02:02.564Z,101421.25
2023-03-16T19:05:33.962Z,101421.22
2023-03-16T19:08:57.743Z,101432.38
2023-03-16T19:12:22.355Z,101430.63
2023-03-16T19:15:44.632Z,101428.81
2023-03-16T19:19:07.177Z,101434.00
2023-03-16T19:22:31.476Z,101433.09
2023-03-16T19:25:56.249Z,101420.06
2023-03-16T19:29:21.421Z,101447.50
2023-03-16T19:32:43.356Z,101431.97
2023-03-16T19:36:06.366Z,101441.34
2023-03-16T19:39:30.945Z,101440.34
2023-03-16T19:42:54.223Z,101455.66
2023-03-16T19:46:19.212Z,101453.94
2023-03-16T19:49:41.770Z,101468.41
2023-03-16T19:53:03.415Z,101461.47
2023-03-16T19:56:27.685Z,101465.69
2023-03-16T19:59:53.981Z,101468.22
2023-03-16T20:03:16.667Z,101460.31
2023-03-16T20:06:40.212Z,101465.41
2023-03-16T20:10:03.067Z,101467.94
2023-03-16T20:13:27.254Z,101460.09
2023-03-16T20:16:50.428Z,101447.00
2023-03-16T20:20:21.232Z,101465.00
2023-03-16T20:23:44.967Z,101473.59
2023-03-16T20:27:12.822Z,101470.03
2023-03-16T20:30:37.764Z,101450.00
2023-03-16T20:34:03.005Z,101481.78
2023-03-16T20:37:27.564Z,101481.69
2023-03-16T20:40:52.362Z,101472.16
2023-03-16T20:44:17.038Z,101484.88
2023-03-16T20:47:40.386Z,101493.38
2023-03-16T20:51:02.970Z,101494.97
2023-03-16T20:54:24.923Z,101487.94
2023-03-16T20:57:47.859Z,101483.50
2023-03-16T21:01:17.575Z,101498.88
2023-03-16T21:04:42.844Z,101497.81
2023-03-16T21:08:04.856Z,101495.03
2023-03-16T21:11:30.954Z,101502.59
2023-03-16T21:16:00.195Z,101511.03
2023-03-16T21:19:23.985Z,101500.50
2023-03-16T21:22:47.191Z,101513.50
2023-03-16T21:26:09.328Z,101515.13
2023-03-16T21:29:31.290Z,101525.34
2023-03-16T21:32:53.953Z,101533.91
2023-03-16T21:36:18.310Z,101530.47
2023-03-16T21:39:41.845Z,101526.28
2023-03-16T21:43:03.568Z,101534.09
2023-03-16T21:46:25.905Z,101533.16
2023-03-16T21:49:47.879Z,101534.09
2023-03-16T21:53:20.874Z,101534.88
2023-03-16T21:56:44.270Z,101539.03
2023-03-16T22:00:07.093Z,101543.34
2023-03-16T22:03:44.238Z,101533.00
2023-03-16T22:07:12.809Z,101541.66
2023-03-16T22:10:35.125Z,101525.16
2023-03-16T22:13:59.640Z,101550.19
2023-03-16T22:17:24.138Z,101564.81
2023-03-16T22:20:46.583Z,101573.34
2023-03-16T22:24:16.586Z,101561.28
2023-03-16T22:27:39.357Z,101571.59
2023-03-16T22:31:05.142Z,101573.16
2023-03-16T22:34:31.589Z,101580.00
2023-03-16T22:37:54.757Z,101578.94
2023-03-16T22:41:18.296Z,101588.59
2023-03-16T22:44:40.193Z,101597.19
2023-03-16T22:48:09.216Z,101597.22
2023-03-16T22:51:32.879Z,101597.13
2023-03-16T22:54:54.701Z,101597.91
2023-03-16T22:58:20.759Z,101595.16
2023-03-16T23:01:44.865Z,101612.28
2023-03-16T23:05:20.049Z,101604.38
2023-03-16T23:08:42.106Z,101612.16
2023-03-16T23:12:04.399Z,101618.19
2023-03-16T23:15:28.732Z,101611.25
2023-03-16T23:18:52.120Z,101613.75
2023-03-16T23:22:15.841Z,101621.44
2023-03-16T23:25:37.744Z,101617.91
2023-03-16T23:29:00.003Z,101619.69
2023-03-16T23:32:22.069Z,101610.31
2023-03-16T23:35:46.694Z,101612.84
2023-03-16T23:39:11.694Z,101615.31
2023-03-16T23:42:33.550Z,101615.25
2023-03-16T23:45:55.303Z,101622.94
2023-03-16T23:49:21.706Z,101630.63
2023-03-16T23:52:43.698Z,101618.66
2023-03-16T23:56:10.860Z,101614.19
2023-03-16T23:59:33.225Z,101587.28
